createdAt,value
2022-11-16T00:01:39.593Z,10.73
2022-11-16T00:06:41.558Z,9.95
2022-11-16T00:11:43.378Z,9.65
2022-11-16T00:16:45.177Z,10.80
2022-11-16T00:21:46.915Z,10.63
2022-11-16T00:26:49.970Z,10.55
2022-11-16T00:31:52.785Z,10.57
2022-11-16T00:36:56.238Z,9.15
2022-11-16T00:41:58.017Z,9.52
2022-11-16T00:46:59.754Z,10.38
2022-11-16T00:52:01.480Z,9.15
2022-11-16T00:57:03.666Z,9.18
2022-11-16T01:02:06.054Z,10.15
2022-11-16T01:07:07.923Z,9.82
2022-11-16T01:12:10.046Z,9.80
2022-11-16T01:17:13.512Z,10.18
2022-11-16T01:22:16.192Z,9.75
2022-11-16T01:27:18.045Z,10.23
2022-11-16T01:32:20.922Z,8.57
2022-11-16T01:37:23.690Z,9.75
2022-11-16T01:42:30.455Z,8.57
2022-11-16T01:47:35.449Z,9.77
2022-11-16T01:52:44.201Z,9.15
2022-11-16T01:57:47.813Z,9.30
2022-11-16T02:02:50.750Z,10.05
2022-11-16T02:08:31.311Z,11.95
2022-11-16T02:13:45.618Z,10.38
2022-11-16T02:19:28.533Z,10.93
2022-11-16T02:24:39.757Z,10.85
2022-11-16T02:29:53.256Z,11.55
2022-11-16T02:35:17.278Z,10.90
2022-11-16T02:40:22.287Z,11.20
2022-11-16T02:45:28.418Z,10.82
2022-11-16T02:50:32.800Z,10.93
2022-11-16T02:55:36.204Z,11.10
2022-11-16T03:00:45.870Z,12.63
2022-11-16T03:06:23.066Z,13.32
2022-11-16T03:11:46.815Z,13.15
2022-11-16T03:16:58.375Z,14.48
2022-11-16T03:22:24.549Z,13.07
2022-11-16T03:27:54.279Z,12.48
2022-11-16T03:33:06.448Z,15.43
2022-11-16T03:38:10.589Z,15.07
2022-11-16T03:43:18.757Z,15.77
2022-11-16T03:48:20.689Z,14.63
2022-11-16T03:53:22.534Z,15.13
2022-11-16T03:58:24.340Z,16.33
2022-11-16T04:03:28.140Z,14.13
2022-11-16T04:08:48.595Z,15.27
2022-11-16T04:14:10.436Z,15.55
2022-11-16T04:19:34.099Z,14.05
2022-11-16T04:24:38.612Z,14.70
2022-11-16T04:29:41.528Z,14.32
2022-11-16T04:35:02.331Z,14.80
2022-11-16T04:40:05.278Z,14.73
2022-11-16T04:45:26.437Z,15.35
2022-11-16T04:50:28.671Z,13.63
2022-11-16T04:55:30.934Z,15.48
2022-11-16T05:00:33.565Z,14.23
2022-11-16T05:05:36.592Z,14.45
2022-11-16T05:10:39.173Z,15.25
2022-11-16T05:15:46.156Z,15.43
2022-11-16T05:21:04.220Z,14.93
2022-11-16T05:26:11.217Z,14.70
2022-11-16T05:31:13.757Z,14.13
2022-11-16T05:36:15.785Z,15.10
2022-11-16T05:41:17.623Z,13.38
2022-11-16T05:46:19.523Z,14.23
2022-11-16T05:51:21.480Z,13.65
2022-11-16T05:56:23.486Z,13.55
2022-11-16T06:01:27.665Z,13.02
2022-11-16T06:06:29.799Z,13.35
2022-11-16T06:11:36.044Z,13.80
2022-11-16T06:16:38.990Z,13.73
2022-11-16T06:21:43.641Z,12.85
2022-11-16T06:26:52.290Z,12.07
2022-11-16T06:31:54.109Z,12.90
2022-11-16T06:36:56.059Z,11.60
2022-11-16T06:41:58.809Z,11.77
2022-11-16T06:47:00.760Z,11.85
2022-11-16T06:52:03.307Z,11.57
2022-11-16T06:57:05.831Z,10.68
2022-11-16T07:02:09.345Z,11.13
2022-11-16T07:07:12.580Z,11.48
2022-11-16T07:12:14.734Z,11.57
2022-11-16T07:17:16.552Z,13.18
2022-11-16T07:22:18.376Z,12.00
2022-11-16T07:27:20.345Z,12.07
2022-11-16T07:32:25.137Z,11.48
2022-11-16T07:37:44.908Z,12.25
2022-11-16T07:42:48.332Z,11.38
2022-11-16T07:48:09.111Z,12.48
2022-11-16T07:53:31.192Z,12.30
2022-11-16T07:58:34.995Z,11.68
2022-11-16T08:03:38.902Z,12.38
2022-11-16T08:08:41.485Z,12.27
2022-11-16T08:13:43.768Z,13.23
2022-11-16T08:18:46.874Z,12.55
2022-11-16T08:23:56.747Z,11.57
2022-11-16T08:29:00.131Z,11.75
2022-11-16T08:34:05.997Z,12.38
2022-11-16T08:39:09.702Z,13.83
2022-11-16T08:44:12.747Z,14.63
2022-11-16T08:49:18.549Z,14.05
2022-11-16T08:54:20.569Z,13.90
2022-11-16T08:59:23.601Z,13.18
2022-11-16T09:04:29.588Z,14.18
2022-11-16T09:09:33.308Z,13.05
2022-11-16T09:14:35.068Z,13.02
2022-11-16T09:19:36.898Z,13.68
2022-11-16T09:24:38.650Z,14.55
2022-11-16T09:29:40.562Z,13.00
2022-11-16T09:34:42.333Z,12.80
2022-11-16T09:39:44.051Z,11.90
2022-11-16T09:45:05.017Z,11.35
2022-11-16T09:50:15.015Z,10.32
2022-11-16T09:55:48.703Z,11.07
2022-11-16T10:01:01.660Z,11.00
2022-11-16T10:06:07.925Z,10.57
2022-11-16T10:11:21.866Z,10.52
2022-11-16T10:16:38.514Z,7.95
2022-11-16T10:22:06.035Z,7.03
2022-11-16T10:27:34.898Z,5.85
2022-11-16T10:32:54.196Z,4.90
2022-11-16T10:37:59.389Z,4.30
2022-11-16T10:43:03.867Z,5.60
2022-11-16T10:48:39.538Z,3.45
2022-11-16T10:53:46.864Z,3.08
2022-11-16T10:58:52.177Z,3.28
2022-11-16T11:03:53.938Z,2.45
2022-11-16T11:09:13.919Z,2.65
2022-11-16T11:14:16.439Z,2.28
2022-11-16T11:19:27.466Z,2.55
2022-11-16T11:24:43.882Z,2.88
2022-11-16T11:29:53.905Z,1.90
2022-11-16T11:34:57.570Z,1.63
2022-11-16T11:40:22.459Z,2.78
2022-11-16T11:45:41.306Z,2.83
2022-11-16T11:50:49.898Z,2.17
2022-11-16T11:55:56.826Z,1.50
2022-11-16T12:01:24.870Z,2.20
2022-11-16T12:07:06.154Z,7.28
2022-11-16T12:12:26.287Z,2.58
2022-11-16T12:17:49.130Z,2.78
2022-11-16T12:23:34.658Z,2.85
2022-11-16T12:29:30.511Z,1.50
2022-11-16T12:34:57.150Z,1.42
2022-11-16T12:40:01.928Z,1.60
2022-11-16T12:45:40.933Z,0.90
2022-11-16T12:51:21.299Z,1.35
2022-11-16T12:56:33.789Z,1.17
2022-11-16T13:02:02.823Z,1.33
2022-11-16T13:07:10.840Z,0.95
2022-11-16T13:12:17.173Z,1.45
2022-11-16T13:17:28.770Z,1.17
2022-11-16T13:22:34.221Z,1.10
2022-11-16T13:27:35.957Z,1.33
2022-11-16T13:32:40.462Z,1.52
2022-11-16T13:37:44.215Z,1.10
2022-11-16T13:43:14.213Z,1.58
2022-11-16T13:48:20.946Z,2.00
2022-11-16T13:58:55.184Z,1.38
2022-11-16T14:04:34.870Z,1.23
2022-11-16T14:09:48.800Z,1.77
2022-11-16T14:15:14.355Z,2.30
2022-11-16T14:20:43.666Z,1.73
2022-11-16T14:26:07.966Z,2.03
2022-11-16T14:31:12.648Z,2.63
2022-11-16T14:36:15.091Z,1.52
2022-11-16T14:41:22.952Z,2.03
2022-11-16T14:46:33.122Z,1.95
2022-11-16T14:51:44.034Z,1.40
2022-11-16T14:56:56.875Z,1.13
2022-11-16T15:02:04.786Z,1.50
2022-11-16T15:07:07.796Z,1.80
2022-11-16T15:12:41.989Z,2.13
2022-11-16T15:18:00.345Z,1.45
2022-11-16T15:23:04.003Z,2.28
2022-11-16T15:28:15.726Z,2.63
2022-11-16T15:33:28.498Z,1.70
2022-11-16T15:38:32.823Z,1.10
2022-11-16T15:48:58.210Z,1.70
2022-11-16T15:54:21.056Z,1.48
2022-11-16T15:59:30.353Z,1.55
2022-11-16T16:04:32.185Z,1.92
2022-11-16T16:09:37.448Z,2.00
2022-11-16T16:14:39.190Z,1.60
2022-11-16T16:19:42.287Z,1.70
2022-11-16T16:24:46.527Z,2.03
2022-11-16T16:29:50.501Z,2.17
2022-11-16T16:34:57.320Z,2.75
2022-11-16T16:40:00.032Z,2.20
2022-11-16T16:45:02.419Z,2.90
2022-11-16T16:50:04.742Z,2.30
2022-11-16T16:55:06.869Z,1.85
2022-11-16T17:00:10.785Z,3.25
2022-11-16T17:05:12.674Z,2.88
2022-11-16T17:10:14.410Z,2.50
2022-11-16T17:15:19.305Z,1.90
2022-11-16T17:20:21.659Z,2.28
2022-11-16T17:25:23.412Z,2.63
2022-11-16T17:30:25.262Z,2.35
2022-11-16T17:35:26.974Z,3.03
2022-11-16T17:40:28.699Z,2.20
2022-11-16T17:45:30.418Z,2.10
2022-11-16T17:50:32.169Z,5.38
2022-11-16T17:55:33.934Z,2.92
2022-11-16T18:00:35.653Z,1.60
2022-11-16T18:05:37.395Z,1.45
2022-11-16T18:10:39.235Z,1.33
2022-11-16T18:15:42.577Z,1.45
2022-11-16T18:20:46.089Z,1.40
2022-11-16T18:25:47.805Z,1.40
2022-11-16T18:30:49.702Z,1.90
2022-11-16T18:35:52.042Z,1.50
2022-11-16T18:41:21.938Z,1.40
2022-11-16T18:46:29.061Z,1.35
2022-11-16T18:51:32.045Z,1.40
2022-11-16T18:56:35.000Z,1.42
2022-11-16T19:01:36.737Z,1.40
2022-11-16T19:06:38.492Z,1.10
2022-11-16T19:11:40.248Z,2.70
2022-11-16T19:16:52.535Z,1.20
2022-11-16T19:21:56.951Z,1.00
2022-11-16T19:26:58.699Z,1.13
2022-11-16T19:32:00.616Z,1.40
2022-11-16T19:37:02.353Z,1.33
2022-11-16T19:42:04.239Z,1.35
2022-11-16T19:47:06.372Z,1.27
2022-11-16T19:52:08.121Z,1.40
2022-11-16T19:57:09.888Z,1.27
2022-11-16T20:02:11.639Z,1.77
2022-11-16T20:07:13.541Z,1.90
2022-11-16T20:12:15.286Z,1.70
2022-11-16T20:17:16.995Z,1.83
2022-11-16T20:22:18.745Z,3.00
2022-11-16T20:27:20.498Z,1.83
2022-11-16T20:32:23.718Z,3.70
2022-11-16T20:37:25.553Z,1.90
2022-11-16T20:42:27.259Z,1.13
2022-11-16T20:47:28.991Z,11.75
2022-11-16T20:52:30.875Z,10.32
2022-11-16T20:57:32.594Z,3.83
2022-11-16T21:02:34.301Z,13.27
2022-11-16T21:07:36.137Z,7.18
2022-11-16T21:12:56.459Z,8.63
2022-11-16T21:17:58.658Z,7.30
2022-11-16T21:23:00.382Z,5.90
2022-11-16T21:28:02.095Z,7.78
2022-11-16T21:33:03.863Z,8.20
2022-11-16T21:38:05.586Z,7.55
2022-11-16T21:43:07.368Z,5.60
2022-11-16T21:48:09.411Z,4.93
2022-11-16T21:53:11.161Z,4.60
2022-11-16T21:58:12.877Z,4.70
2022-11-16T22:03:14.638Z,4.63
2022-11-16T22:08:16.411Z,4.70
2022-11-16T22:13:19.426Z,5.22
2022-11-16T22:18:21.158Z,4.65
2022-11-16T22:23:23.089Z,3.75
2022-11-16T22:28:25.827Z,3.20
2022-11-16T22:33:28.112Z,3.92
2022-11-16T22:38:30.128Z,3.47
2022-11-16T22:43:32.738Z,3.80
2022-11-16T22:48:37.378Z,3.92
2022-11-16T22:53:39.262Z,5.28
2022-11-16T22:58:41.135Z,4.88
2022-11-16T23:03:42.932Z,5.20
2022-11-16T23:08:44.772Z,4.60
2022-11-16T23:14:05.224Z,4.85
2022-11-16T23:19:29.130Z,4.82
2022-11-16T23:24:49.478Z,5.57
2022-11-16T23:29:51.294Z,5.65
2022-11-16T23:34:53.135Z,5.68
2022-11-16T23:39:54.843Z,5.78
2022-11-16T23:44:56.704Z,6.13
2022-11-16T23:49:58.487Z,5.72
2022-11-16T23:55:00.243Z,5.78
